Time;durP1;ratioP1;P1;durP2;ratioP2;P2;SDS_P1;SDS_P2;PMS_P1;PMS_P2;Temp;Humidity;BMP_temperature;BMP_pressure;BME280_temperature;BME280_humidity;BME280_pressure;Samples;Min_cycle;Max_cycle;Signal;HPM_P1;HPM_P2
2022/11/21 00:00:08;;;;;;;;;;;;;;;8.06;50.88;98980.34;4469064;32;33806;-64
2022/11/21 00:02:35;;;;;;;;;;;;;;;8.07;51.16;98974.88;4471476;31;33362;-65
2022/11/21 00:05:02;;;;;;;;;;;;;;;8.02;51.80;98971.72;4474762;32;32657;-64
2022/11/21 00:07:30;;;;;;;;;;;;;;;8.10;51.50;98971.13;4464121;32;34285;-65
2022/11/21 00:09:57;;;;;;;;;;;;;;;8.27;50.84;98951.16;4465126;32;33673;-64
2022/11/21 00:12:24;;;;;;;;;;;;;;;8.29;50.11;98949.25;4474031;32;34451;-65
2022/11/21 00:14:52;;;;;;;;;;;;;;;8.12;50.65;98945.19;4477743;32;33994;-64
2022/11/21 00:17:19;;;;;;;;;;;;;;;8.22;49.95;98945.34;4482553;32;34297;-66
2022/11/21 00:19:46;;;;;;;;;;;;;;;8.09;50.69;98945.44;4468683;32;34357;-64
2022/11/21 00:22:14;;;;;;;;;;;;;;;8.19;49.92;98934.94;4469140;32;33635;-65
2022/11/21 00:24:41;;;;;;;;;;;;;;;8.03;50.88;98929.94;4469502;32;35552;-64
2022/11/21 00:27:08;;;;;;;;;;;;;;;8.14;49.84;98925.47;4481899;32;34437;-64
2022/11/21 00:29:36;;;;;;;;;;;;;;;8.07;49.63;98916.25;4482587;32;34076;-63
2022/11/21 00:32:03;;;;;;;;;;;;;;;7.93;50.36;98917.31;4477426;32;33078;-63
2022/11/21 00:34:30;;;;;;;;;;;;;;;7.86;50.89;98915.22;4473544;32;34683;-62
2022/11/21 00:36:58;;;;;;;;;;;;;;;7.59;51.85;98910.22;4464817;32;33891;-68
2022/11/21 00:39:25;;;;;;;;;;;;;;;8.04;49.88;98907.66;4465156;32;34071;-63
2022/11/21 00:41:52;;;;;;;;;;;;;;;8.02;49.96;98902.41;4479480;32;33367;-63
2022/11/21 00:44:20;;;;;;;;;;;;;;;7.99;49.83;98899.16;4482027;32;34911;-64
2022/11/21 00:46:47;;;;;;;;;;;;;;;7.89;50.27;98885.69;4485428;32;34120;-65
2022/11/21 00:49:14;;;;;;;;;;;;;;;7.92;50.04;98898.78;4469039;32;32770;-64
2022/11/21 00:51:42;;;;;;;;;;;;;;;7.98;49.55;98897.47;4482602;32;33590;-66
2022/11/21 00:54:09;;;;;;;;;;;;;;;7.73;50.03;98903.81;4478103;32;34243;-64
2022/11/21 00:56:36;;;;;;;;;;;;;;;7.59;50.15;98913.72;4469403;32;34560;-65
2022/11/21 00:59:03;;;;;;;;;;;;;;;7.39;51.05;98914.38;4475097;32;34342;-65
2022/11/21 01:01:31;;;;;;;;;;;;;;;7.46;50.72;98915.59;4472208;32;33399;-65
2022/11/21 01:03:58;;;;;;;;;;;;;;;7.63;50.39;98917.00;4464961;32;33932;-64
2022/11/21 01:06:26;;;;;;;;;;;;;;;7.77;50.17;98923.91;4472300;32;33602;-65
2022/11/21 01:08:53;;;;;;;;;;;;;;;7.58;50.58;98906.69;4473060;32;35071;-65
2022/11/21 01:11:20;;;;;;;;;;;;;;;7.54;50.91;98904.37;4479281;32;32369;-64
2022/11/21 01:13:48;;;;;;;;;;;;;;;7.65;50.74;98901.75;4481322;32;34112;-65
2022/11/21 01:16:19;;;;;;;;;;;;;;;7.42;51.36;98895.50;4481882;32;35162;-64
2022/11/21 01:18:47;;;;;;;;;;;;;;;7.28;51.71;98893.88;4481621;32;33978;-65
2022/11/21 01:21:15;;;;;;;;;;;;;;;7.34;51.41;98888.09;4472996;32;33963;-67
2022/11/21 01:23:42;;;;;;;;;;;;;;;7.31;51.38;98888.31;4445227;32;819506;-69
2022/11/21 01:26:10;;;;;;;;;;;;;;;7.35;51.26;98886.25;4469480;32;35458;-68
2022/11/21 01:28:38;;;;;;;;;;;;;;;7.14;52.32;98888.72;4470777;32;34964;-66
2022/11/21 01:31:09;;;;;;;;;;;;;;;6.95;52.60;98886.56;4481816;32;32999;-67
2022/11/21 01:33:37;;;;;;;;;;;;;;;7.49;50.74;98883.44;4469399;32;34903;-69
2022/11/21 01:36:07;;;;;;;;;;;;;;;7.62;50.01;98884.19;4469224;32;34127;-67
2022/11/21 01:38:34;;;;;;;;;;;;;;;7.59;49.65;98892.41;4471385;32;34031;-67
2022/11/21 01:41:01;;;;;;;;;;;;;;;7.56;49.48;98891.78;4467257;32;31639;-68
2022/11/21 01:43:29;;;;;;;;;;;;;;;7.15;51.03;98888.59;4480308;32;33644;-66
2022/11/21 01:46:00;;;;;;;;;;;;;;;7.39;50.77;98891.25;4482586;32;34069;-68
2022/11/21 01:48:30;;;;;;;;;;;;;;;7.34;50.56;98893.41;4469139;32;34111;-67
2022/11/21 01:50:59;;;;;;;;;;;;;;;7.39;50.54;98893.06;4476553;32;33271;-67
2022/11/21 01:53:26;;;;;;;;;;;;;;;7.52;49.62;98891.19;4468773;32;34051;-68
2022/11/21 01:55:53;;;;;;;;;;;;;;;7.51;49.85;98888.63;4474938;32;35185;-66
2022/11/21 01:58:21;;;;;;;;;;;;;;;7.39;50.05;98887.75;4459938;32;35229;-68
2022/11/21 02:00:48;;;;;;;;;;;;;;;7.53;49.72;98884.88;4482301;31;32706;-67
2022/11/21 02:03:17;;;;;;;;;;;;;;;7.51;49.63;98885.97;4462100;32;34216;-66
2022/11/21 02:05:44;;;;;;;;;;;;;;;7.49;49.45;98880.75;4471674;32;35456;-66
2022/11/21 02:08:17;;;;;;;;;;;;;;;7.34;50.00;98880.09;4468875;32;34424;-67
2022/11/21 02:10:46;;;;;;;;;;;;;;;7.49;49.33;98880.75;4466738;32;33355;-66
2022/11/21 02:13:14;;;;;;;;;;;;;;;7.36;49.67;98875.53;4466969;32;33877;-66
2022/11/21 02:15:41;;;;;;;;;;;;;;;7.38;49.74;98880.72;4468779;32;35503;-68
2022/11/21 02:18:08;;;;;;;;;;;;;;;7.38;49.73;98878.06;4469379;32;34083;-66
2022/11/21 02:20:36;;;;;;;;;;;;;;;7.40;50.13;98881.47;4470608;32;33206;-66
2022/11/21 02:23:05;;;;;;;;;;;;;;;7.35;50.45;98879.16;4459405;32;34903;-66
2022/11/21 02:25:33;;;;;;;;;;;;;;;7.38;50.32;98876.25;4465193;32;35767;-67
2022/11/21 02:28:01;;;;;;;;;;;;;;;7.49;49.70;98880.75;4458677;32;33788;-67
2022/11/21 02:30:32;;;;;;;;;;;;;;;7.51;49.60;98881.47;4456423;32;34548;-67
2022/11/21 02:32:59;;;;;;;;;;;;;;;7.36;50.00;98872.00;4455935;32;34242;-68
2022/11/21 02:35:27;;;;;;;;;;;;;;;6.94;51.18;98875.09;4471098;32;34084;-68
2022/11/21 02:37:58;;;;;;;;;;;;;;;7.20;51.09;98867.84;4468560;32;34045;-67
2022/11/21 02:40:27;;;;;;;;;;;;;;;7.29;51.02;98871.63;4467971;32;34487;-67
2022/11/21 02:42:54;;;;;;;;;;;;;;;7.05;52.04;98860.97;4467556;32;34967;-69
2022/11/21 02:45:22;;;;;;;;;;;;;;;7.12;51.87;98867.53;4481478;32;34473;-69
2022/11/21 02:47:51;;;;;;;;;;;;;;;7.28;51.77;98871.72;4467549;32;35274;-66
2022/11/21 02:50:19;;;;;;;;;;;;;;;7.23;51.68;98862.28;4470086;32;34258;-67
2022/11/21 02:52:46;;;;;;;;;;;;;;;7.38;51.35;98862.06;4461570;32;34853;-67
2022/11/21 02:55:14;;;;;;;;;;;;;;;7.34;51.29;98873.94;4475594;32;34455;-67
2022/11/21 02:57:42;;;;;;;;;;;;;;;7.47;50.50;98874.69;4480738;32;34863;-68
2022/11/21 03:00:10;;;;;;;;;;;;;;;7.45;49.97;98876.66;4483886;32;32937;-68
2022/11/21 03:02:37;;;;;;;;;;;;;;;7.54;49.41;98872.41;4468685;32;34571;-69
2022/11/21 03:05:07;;;;;;;;;;;;;;;7.43;49.90;98870.56;4477099;32;34000;-68
2022/11/21 03:07:34;;;;;;;;;;;;;;;7.28;50.63;98869.06;4462625;32;34392;-67
2022/11/21 03:10:02;;;;;;;;;;;;;;;7.44;49.65;98870.44;4464698;31;33503;-69
2022/11/21 03:12:29;;;;;;;;;;;;;;;7.35;49.23;98875.63;4462941;32;34164;-68
2022/11/21 03:14:56;;;;;;;;;;;;;;;7.35;49.09;98868.50;4461142;32;33550;-67
2022/11/21 03:17:24;;;;;;;;;;;;;;;7.12;50.14;98872.03;4464784;32;32860;-71
2022/11/21 03:19:51;;;;;;;;;;;;;;;7.10;49.67;98865.97;4466737;32;32712;-68
2022/11/21 03:22:18;;;;;;;;;;;;;;;7.19;49.44;98868.81;4464789;32;33828;-67
2022/11/21 03:24:45;;;;;;;;;;;;;;;7.23;49.55;98851.63;4465096;32;34407;-67
2022/11/21 03:27:13;;;;;;;;;;;;;;;7.30;49.33;98862.66;4463338;32;34118;-71
2022/11/21 03:29:40;;;;;;;;;;;;;;;7.24;49.34;98857.81;4459579;32;32278;-64
2022/11/21 03:32:07;;;;;;;;;;;;;;;7.24;49.65;98858.66;4464329;32;35260;-66
2022/11/21 03:34:35;;;;;;;;;;;;;;;7.35;48.95;98857.84;4460119;32;35069;-66
2022/11/21 03:37:02;;;;;;;;;;;;;;;7.35;48.89;98851.66;4460483;32;33038;-69
2022/11/21 03:39:29;;;;;;;;;;;;;;;7.36;48.82;98848.06;4460674;32;34328;-65
2022/11/21 03:41:57;;;;;;;;;;;;;;;7.34;48.61;98848.16;4454519;32;34937;-66
2022/11/21 03:44:24;;;;;;;;;;;;;;;7.13;49.56;98842.66;4461049;32;34309;-66
2022/11/21 03:46:52;;;;;;;;;;;;;;;7.20;49.44;98843.88;4458130;32;35015;-65
2022/11/21 03:49:19;;;;;;;;;;;;;;;7.32;48.95;98843.91;4464011;32;34008;-65
2022/11/21 03:51:46;;;;;;;;;;;;;;;7.35;48.83;98841.00;4458504;32;34673;-65
2022/11/21 03:54:14;;;;;;;;;;;;;;;7.29;48.97;98839.69;4463275;32;33679;-66
2022/11/21 03:56:41;;;;;;;;;;;;;;;7.02;50.01;98831.94;4464902;32;33396;-65
2022/11/21 03:59:08;;;;;;;;;;;;;;;6.95;50.35;98838.69;4463798;32;34067;-65
2022/11/21 04:01:36;;;;;;;;;;;;;;;6.91;50.52;98831.91;4463068;32;34235;-64
2022/11/21 04:04:04;;;;;;;;;;;;;;;6.95;50.42;98833.38;4461931;32;34219;-65
2022/11/21 04:06:31;;;;;;;;;;;;;;;7.02;50.14;98829.28;4461495;32;34091;-64
2022/11/21 04:08:58;;;;;;;;;;;;;;;7.08;49.55;98831.50;4463861;32;32899;-64
2022/11/21 04:11:26;;;;;;;;;;;;;;;7.06;49.59;98833.41;4465137;32;33994;-64
2022/11/21 04:13:53;;;;;;;;;;;;;;;7.03;49.78;98828.34;4460001;32;34322;-65
2022/11/21 04:16:20;;;;;;;;;;;;;;;6.99;49.68;98817.06;4462044;32;32716;-65
2022/11/21 04:18:47;;;;;;;;;;;;;;;6.96;49.43;98817.28;4464217;32;34457;-64
2022/11/21 04:21:15;;;;;;;;;;;;;;;6.88;50.03;98810.84;4458272;32;34994;-64
2022/11/21 04:23:42;;;;;;;;;;;;;;;6.67;50.88;98808.81;4463417;32;34144;-65
2022/11/21 04:26:09;;;;;;;;;;;;;;;6.62;50.91;98800.34;4463779;32;35301;-67
2022/11/21 04:28:37;;;;;;;;;;;;;;;6.77;50.96;98808.97;4465377;32;32111;-64
2022/11/21 04:31:04;;;;;;;;;;;;;;;6.88;50.54;98802.88;4464430;32;32275;-65
2022/11/21 04:33:37;;;;;;;;;;;;;;;6.88;50.44;98797.56;4464699;32;35255;-64
2022/11/21 04:36:05;;;;;;;;;;;;;;;6.89;50.92;98794.75;4461302;32;33802;-64
2022/11/21 04:38:32;;;;;;;;;;;;;;;6.94;50.51;98797.94;4466085;32;33405;-65
2022/11/21 04:41:00;;;;;;;;;;;;;;;7.03;50.01;98787.56;4464787;32;35566;-67
2022/11/21 04:43:27;;;;;;;;;;;;;;;7.08;49.97;98774.75;4460546;32;32888;-66
2022/11/21 04:45:54;;;;;;;;;;;;;;;7.11;49.82;98779.84;4462706;32;34006;-65
2022/11/21 04:48:23;;;;;;;;;;;;;;;7.20;49.56;98779.16;4466054;32;33193;-65
2022/11/21 04:50:50;;;;;;;;;;;;;;;7.13;49.72;98772.63;4463032;32;33594;-66
2022/11/21 04:53:17;;;;;;;;;;;;;;;7.17;49.61;98768.75;4463686;32;34230;-67
2022/11/21 04:55:45;;;;;;;;;;;;;;;7.15;50.29;98768.84;4459690;32;33990;-66
2022/11/21 04:58:12;;;;;;;;;;;;;;;7.15;50.49;98782.16;4463326;32;33305;-66
2022/11/21 05:00:39;;;;;;;;;;;;;;;7.21;50.17;98778.19;4464915;32;34323;-64
2022/11/21 05:03:07;;;;;;;;;;;;;;;7.21;49.90;98783.50;4464342;32;35192;-65
2022/11/21 05:05:34;;;;;;;;;;;;;;;7.09;51.04;98795.06;4462156;32;33828;-66
2022/11/21 05:08:01;;;;;;;;;;;;;;;6.92;51.38;98791.88;4455418;32;33504;-64
2022/11/21 05:10:29;;;;;;;;;;;;;;;7.14;51.06;98792.94;4462442;32;32960;-64
2022/11/21 05:15:43;;;;;;;;;;;;;;;7.21;50.90;98787.00;4456597;32;34683;-68
2022/11/21 05:18:11;;;;;;;;;;;;;;;6.47;53.26;98782.84;4455314;32;34701;-67
2022/11/21 05:20:38;;;;;;;;;;;;;;;6.73;53.07;98786.22;4464488;32;34669;-66
2022/11/21 05:23:05;;;;;;;;;;;;;;;6.95;52.35;98783.66;4459078;32;33873;-66
2022/11/21 05:25:32;;;;;;;;;;;;;;;7.04;52.58;98784.78;4467209;32;34221;-66
2022/11/21 05:28:00;;;;;;;;;;;;;;;7.11;52.66;98786.03;4465492;32;33275;-65
2022/11/21 05:30:28;;;;;;;;;;;;;;;6.87;53.89;98786.06;4466587;32;34691;-64
2022/11/21 05:32:55;;;;;;;;;;;;;;;7.07;53.10;98784.56;4469221;32;34803;-64
2022/11/21 05:35:22;;;;;;;;;;;;;;;7.31;52.35;98787.16;4477653;32;34271;-64
2022/11/21 05:37:54;;;;;;;;;;;;;;;7.33;52.60;98776.41;4471673;32;33138;-65
2022/11/21 05:40:21;;;;;;;;;;;;;;;7.21;53.40;98780.84;4476823;32;34932;-65
2022/11/21 05:45:35;;;;;;;;;;;;;;;7.18;54.00;98759.78;4477623;32;33773;-67
2022/11/21 05:48:06;;;;;;;;;;;;;;;7.22;54.14;98754.12;4464838;32;33547;-65
2022/11/21 05:50:36;;;;;;;;;;;;;;;7.46;52.97;98764.69;4472566;32;34263;-64
2022/11/21 05:53:04;;;;;;;;;;;;;;;7.34;54.34;98781.59;4479574;32;33377;-65
2022/11/21 05:55:33;;;;;;;;;;;;;;;7.48;53.36;98777.91;4472070;32;33643;-66
2022/11/21 05:58:00;;;;;;;;;;;;;;;7.40;54.14;98785.62;4467449;32;32156;-64
2022/11/21 06:00:27;;;;;;;;;;;;;;;7.55;53.47;98786.25;4468809;32;34002;-64
2022/11/21 06:05:41;;;;;;;;;;;;;;;7.08;55.45;98796.91;4474308;32;34995;-67
2022/11/21 06:08:09;;;;;;;;;;;;;;;7.49;53.96;98792.91;4473705;32;34532;-65
2022/11/21 06:10:36;;;;;;;;;;;;;;;7.53;54.09;98789.03;4476465;32;35013;-64
2022/11/21 06:13:20;;;;;;;;;;;;;;;7.52;54.20;98787.34;4471781;32;33891;-66
2022/11/21 06:15:48;;;;;;;;;;;;;;;7.36;53.88;98777.03;4466060;32;33706;-63
2022/11/21 06:18:15;;;;;;;;;;;;;;;7.41;53.42;98776.66;4466070;32;32887;-65
2022/11/21 06:20:43;;;;;;;;;;;;;;;7.45;53.70;98783.47;4478074;32;35229;-64
2022/11/21 06:23:11;;;;;;;;;;;;;;;7.06;55.50;98788.16;4468239;32;34006;-64
2022/11/21 06:25:38;;;;;;;;;;;;;;;7.07;55.53;98791.69;4478838;32;34198;-65
2022/11/21 06:28:05;;;;;;;;;;;;;;;7.29;55.02;98785.56;4478979;32;32986;-64
2022/11/21 06:30:33;;;;;;;;;;;;;;;7.15;55.25;98794.63;4482116;32;34258;-65
2022/11/21 06:33:02;;;;;;;;;;;;;;;7.35;54.19;98793.97;4469907;32;34299;-64
2022/11/21 06:35:29;;;;;;;;;;;;;;;7.40;53.69;98789.13;4463778;32;34130;-65
2022/11/21 06:37:57;;;;;;;;;;;;;;;7.12;54.75;98798.34;4464307;32;34306;-64
2022/11/21 06:40:24;;;;;;;;;;;;;;;7.18;55.31;98807.69;4466874;32;34759;-67
2022/11/21 06:42:51;;;;;;;;;;;;;;;7.35;54.04;98803.75;4468505;32;35298;-64
2022/11/21 06:45:19;;;;;;;;;;;;;;;7.35;53.97;98809.06;4464217;32;34300;-66
2022/11/21 06:47:47;;;;;;;;;;;;;;;7.20;54.44;98811.94;4479554;32;32640;-64
2022/11/21 06:50:14;;;;;;;;;;;;;;;7.49;53.17;98813.34;4476446;32;33783;-64
2022/11/21 06:52:42;;;;;;;;;;;;;;;7.11;54.46;98815.28;4472376;32;34189;-65
2022/11/21 06:55:09;;;;;;;;;;;;;;;7.27;53.80;98817.66;4463930;32;34201;-64
2022/11/21 06:57:36;;;;;;;;;;;;;;;7.39;54.43;98822.03;4469539;32;33253;-67
2022/11/21 07:00:04;;;;;;;;;;;;;;;7.57;53.89;98824.25;4480777;32;34435;-64
2022/11/21 07:02:32;;;;;;;;;;;;;;;7.51;54.60;98825.56;4472488;32;33143;-65
2022/11/21 07:04:59;;;;;;;;;;;;;;;7.36;55.42;98834.75;4470873;32;35268;-66
2022/11/21 07:07:26;;;;;;;;;;;;;;;7.40;54.99;98828.22;4469939;32;33402;-65
2022/11/21 07:09:54;;;;;;;;;;;;;;;7.71;54.31;98829.38;4470361;32;33987;-64
2022/11/21 07:15:07;;;;;;;;;;;;;;;7.50;54.51;98831.84;4472490;32;34085;-64
2022/11/21 07:17:34;;;;;;;;;;;;;;;7.68;54.41;98833.13;4469448;32;34231;-65
2022/11/21 07:20:02;;;;;;;;;;;;;;;7.62;54.58;98833.59;4476897;32;32979;-68
2022/11/21 07:22:29;;;;;;;;;;;;;;;7.51;53.98;98843.34;4471770;32;33854;-64
2022/11/21 07:24:56;;;;;;;;;;;;;;;7.62;53.18;98833.59;4469780;32;34146;-64
2022/11/21 07:27:24;;;;;;;;;;;;;;;7.53;53.38;98836.09;4463211;32;33116;-66
2022/11/21 07:29:51;;;;;;;;;;;;;;;7.53;53.69;98838.78;4473686;32;33366;-65
2022/11/21 07:32:18;;;;;;;;;;;;;;;7.21;54.36;98837.59;4466113;32;32843;-67
2022/11/21 07:34:46;;;;;;;;;;;;;;;7.23;54.20;98835.66;4464079;32;32856;-64
2022/11/21 07:37:13;;;;;;;;;;;;;;;7.09;54.65;98830.50;4463053;32;31999;-64
2022/11/21 07:39:40;;;;;;;;;;;;;;;7.12;55.10;98840.09;4463539;32;33983;-65
2022/11/21 07:42:08;;;;;;;;;;;;;;;7.18;55.17;98831.66;4463975;32;34354;-65
2022/11/21 07:44:35;;;;;;;;;;;;;;;7.04;56.31;98834.50;4469644;32;32998;-65
2022/11/21 07:47:02;;;;;;;;;;;;;;;7.40;55.74;98828.22;4465170;32;33415;-65
2022/11/21 07:49:30;;;;;;;;;;;;;;;7.59;54.73;98823.16;4469939;32;33677;-64
2022/11/21 07:51:57;;;;;;;;;;;;;;;7.69;54.42;98823.31;4466033;32;33005;-67
2022/11/21 07:54:25;;;;;;;;;;;;;;;7.73;54.16;98827.41;4475044;32;37402;-65
2022/11/21 07:56:52;;;;;;;;;;;;;;;7.82;54.46;98840.03;4465963;32;32071;-65
2022/11/21 07:59:19;;;;;;;;;;;;;;;7.77;54.65;98844.88;4473729;32;34204;-65
2022/11/21 08:01:47;;;;;;;;;;;;;;;7.91;54.32;98843.81;4455560;32;32540;-64
2022/11/21 08:04:14;;;;;;;;;;;;;;;8.03;54.09;98850.00;4475446;32;34271;-65
2022/11/21 08:06:41;;;;;;;;;;;;;;;7.98;54.26;98849.50;4470519;32;32061;-65
2022/11/21 08:09:09;;;;;;;;;;;;;;;8.00;54.06;98858.22;4469668;32;35743;-65
2022/11/21 08:11:36;;;;;;;;;;;;;;;7.96;54.53;98854.09;4466395;32;33592;-65
2022/11/21 08:14:03;;;;;;;;;;;;;;;8.05;54.60;98864.03;4468214;32;35258;-65
2022/11/21 08:16:31;;;;;;;;;;;;;;;8.04;55.20;98863.19;4469183;32;32052;-67
2022/11/21 08:18:59;;;;;;;;;;;;;;;8.07;55.25;98864.78;4460923;32;33634;-65
2022/11/21 08:21:26;;;;;;;;;;;;;;;8.30;54.14;98862.94;4468969;32;33089;-68
2022/11/21 08:23:54;;;;;;;;;;;;;;;8.10;54.92;98864.53;4467802;32;35025;-65
2022/11/21 08:26:21;;;;;;;;;;;;;;;8.19;55.48;98870.97;4462835;32;33164;-67
2022/11/21 08:28:48;;;;;;;;;;;;;;;8.37;55.66;98865.00;4473838;32;35242;-67
2022/11/21 08:31:20;;;;;;;;;;;;;;;8.53;55.40;98883.31;4468867;32;34240;-65
2022/11/21 08:33:47;;;;;;;;;;;;;;;8.55;55.81;98870.72;4467507;32;32827;-68
2022/11/21 08:36:15;;;;;;;;;;;;;;;8.54;56.29;98879.69;4467951;32;32525;-64
2022/11/21 08:38:42;;;;;;;;;;;;;;;8.81;55.39;98879.28;4464840;32;34396;-67
2022/11/21 08:43:56;;;;;;;;;;;;;;;8.86;55.09;98890.44;4469276;32;35361;-65
2022/11/21 08:46:27;;;;;;;;;;;;;;;8.85;55.17;98880.72;4471631;32;34049;-65
2022/11/21 08:48:54;;;;;;;;;;;;;;;8.59;56.45;98885.50;4476984;32;34227;-65
2022/11/21 08:51:21;;;;;;;;;;;;;;;8.65;55.31;98883.31;4471660;32;35775;-66
2022/11/21 08:53:49;;;;;;;;;;;;;;;8.62;54.64;98877.25;4467966;32;34575;-68
2022/11/21 08:56:16;;;;;;;;;;;;;;;7.65;56.91;98878.63;4468231;32;34170;-65
2022/11/21 08:58:43;;;;;;;;;;;;;;;8.15;56.10;98878.31;4465446;32;34757;-67
2022/11/21 09:01:11;;;;;;;;;;;;;;;8.03;56.00;98872.16;4465604;32;34289;-67
2022/11/21 09:03:38;;;;;;;;;;;;;;;8.03;55.45;98873.97;4467502;32;34222;-66
2022/11/21 09:06:05;;;;;;;;;;;;;;;7.90;55.81;98882.91;4469204;32;31979;-66
2022/11/21 09:08:34;;;;;;;;;;;;;;;8.03;56.23;98876.66;4471254;32;32690;-65
2022/11/21 09:11:05;;;;;;;;;;;;;;;8.22;54.47;98886.69;4480021;32;34548;-65
2022/11/21 09:13:32;;;;;;;;;;;;;;;7.68;55.72;98883.72;4470234;32;32863;-65
2022/11/21 09:18:47;;;;;;;;;;;;;;;7.93;55.53;98885.34;4473090;32;35198;-65
2022/11/21 09:21:14;;;;;;;;;;;;;;;8.35;54.14;98887.44;4473243;32;32966;-65
2022/11/21 09:23:42;;;;;;;;;;;;;;;7.73;55.54;98870.03;4471456;32;34162;-65
2022/11/21 09:26:09;;;;;;;;;;;;;;;7.79;54.81;98869.56;4475683;32;33206;-68
2022/11/21 09:28:36;;;;;;;;;;;;;;;7.39;56.89;98864.63;4470722;32;32776;-65
2022/11/21 09:31:04;;;;;;;;;;;;;;;7.82;55.35;98865.81;4470807;32;33059;-65
2022/11/21 09:33:31;;;;;;;;;;;;;;;7.89;55.26;98875.03;4465818;32;32777;-64
2022/11/21 09:35:59;;;;;;;;;;;;;;;7.75;56.29;98872.59;4465838;32;32906;-65
2022/11/21 09:38:27;;;;;;;;;;;;;;;7.28;57.17;98874.38;4467594;32;32686;-65
2022/11/21 09:41:50;;;;;;;;;;;;;;;7.40;57.20;98873.47;4468076;32;34211;-67
2022/11/21 09:43:59;;;;;;;;;;;;;;;7.08;57.96;98874.06;4461667;32;35161;-65
2022/11/21 09:46:27;;;;;;;;;;;;;;;7.22;58.31;98878.34;4464536;32;32757;-66
2022/11/21 09:48:59;;;;;;;;;;;;;;;6.85;59.02;98880.25;4459154;32;33752;-65
2022/11/21 09:51:26;;;;;;;;;;;;;;;6.98;58.68;98881.88;4461616;32;34273;-65
2022/11/21 09:54:26;;;;;;;;;;;;;;;6.97;59.52;98866.03;4459713;32;32242;-67
2022/11/21 09:56:54;;;;;;;;;;;;;;;6.74;60.99;98865.03;4434392;32;32130;-64
2022/11/21 09:59:32;;;;;;;;;;;;;;;6.78;61.41;98865.69;4469745;32;34219;-65
2022/11/21 10:02:00;;;;;;;;;;;;;;;6.80;61.26;98864.59;4476189;32;34557;-65
2022/11/21 10:04:27;;;;;;;;;;;;;;;7.36;60.13;98866.69;4461519;32;32578;-65
2022/11/21 10:06:55;;;;;;;;;;;;;;;6.99;59.72;98862.28;4461393;32;31929;-65
2022/11/21 10:09:25;;;;;;;;;;;;;;;7.14;60.54;98859.47;4480777;32;32664;-68
2022/11/21 10:15:00;;;;;;;;;;;;;;;7.73;58.45;98870.03;4480142;32;34880;-65
2022/11/21 10:17:30;;;;;;;;;;;;;;;7.92;57.86;98862.31;4468492;32;32239;-66
2022/11/21 10:20:07;;;;;;;;;;;;;;;8.30;56.67;98844.28;4462916;32;35277;-64
2022/11/21 10:22:45;;;;;;;;;;;;;;;7.86;58.37;98849.47;4468667;32;33936;-67
2022/11/21 10:25:22;;;;;;;;;;;;;;;8.23;57.92;98848.41;4466271;32;32752;-64
2022/11/21 10:28:06;;;;;;;;;;;;;;;8.46;57.40;98839.44;4467625;32;32527;-65
2022/11/21 10:30:33;;;;;;;;;;;;;;;8.38;57.75;98836.56;4466942;32;33485;-67
2022/11/21 10:33:02;;;;;;;;;;;;;;;8.58;56.87;98822.47;4471717;32;34417;-65
2022/11/21 10:35:34;;;;;;;;;;;;;;;8.83;56.11;98826.66;4460131;32;32712;-65
2022/11/21 10:38:04;;;;;;;;;;;;;;;8.61;55.76;98822.22;4461649;32;31781;-65
2022/11/21 10:40:43;;;;;;;;;;;;;;;8.62;55.82;98823.06;4470018;32;32997;-67
2022/11/21 10:45:59;;;;;;;;;;;;;;;8.86;55.82;98820.22;4476161;32;34201;-70
2022/11/21 10:48:27;;;;;;;;;;;;;;;9.16;55.08;98810.63;4476698;32;33171;-66
2022/11/21 10:51:05;;;;;;;;;;;;;;;9.32;54.32;98805.69;4475268;32;33472;-65
2022/11/21 10:56:19;;;;;;;;;;;;;;;9.58;54.43;98800.81;4472718;32;33114;-64
2022/11/21 10:58:50;;;;;;;;;;;;;;;9.59;54.09;98801.66;4458294;32;32068;-65
2022/11/21 11:01:27;;;;;;;;;;;;;;;9.67;54.28;98808.03;4468047;32;33816;-65
2022/11/21 11:04:16;;;;;;;;;;;;;;;9.65;53.05;98812.66;4468469;32;32925;-65
2022/11/21 11:07:32;;;;;;;;;;;;;;;9.52;53.62;98814.69;4470926;32;34054;-67
2022/11/21 11:10:33;;;;;;;;;;;;;;;9.59;53.45;98817.66;4449058;32;33361;-67
2022/11/21 11:16:09;;;;;;;;;;;;;;;9.82;53.94;98810.34;4462425;32;32976;-66
2022/11/21 11:18:38;;;;;;;;;;;;;;;9.86;53.67;98804.63;4465998;32;34049;-65
2022/11/21 11:21:10;;;;;;;;;;;;;;;9.98;53.44;98805.34;4457231;32;33403;-65
2022/11/21 11:23:38;;;;;;;;;;;;;;;9.97;53.54;98806.34;4464881;32;35367;-65
2022/11/21 11:26:16;;;;;;;;;;;;;;;9.99;54.22;98799.91;4468820;32;35462;-67
2022/11/21 11:28:44;;;;;;;;;;;;;;;10.10;54.14;98798.09;4454830;32;32475;-64
2022/11/21 11:31:11;;;;;;;;;;;;;;;10.13;54.07;98798.69;4465891;32;31795;-65
2022/11/21 11:33:40;;;;;;;;;;;;;;;10.31;53.54;98796.25;4462747;32;32361;-68
2022/11/21 11:36:10;;;;;;;;;;;;;;;10.29;53.54;98787.50;4473481;32;34326;-66
2022/11/21 11:38:37;;;;;;;;;;;;;;;10.35;52.85;98786.97;4476394;32;32842;-65
2022/11/21 11:41:08;;;;;;;;;;;;;;;10.42;52.98;98792.59;4463738;32;33222;-67
2022/11/21 11:50:09;;;;;;;;;;;;;;;10.52;51.99;98771.22;4459857;32;33766;-64
2022/11/21 11:52:24;;;;;;;;;;;;;;;10.56;52.14;98769.97;4455809;32;34063;-64
2022/11/21 11:54:54;;;;;;;;;;;;;;;10.64;53.10;98768.28;4479765;32;34232;-64
2022/11/21 11:57:22;;;;;;;;;;;;;;;10.68;52.84;98763.50;4462901;32;32343;-65
2022/11/21 11:59:50;;;;;;;;;;;;;;;10.62;53.41;98761.38;4479973;32;33020;-64
2022/11/21 12:02:22;;;;;;;;;;;;;;;10.81;53.40;98758.72;4451830;32;32041;-64
2022/11/21 12:04:54;;;;;;;;;;;;;;;10.68;53.54;98759.00;4463492;32;34412;-65
2022/11/21 12:07:23;;;;;;;;;;;;;;;11.07;52.60;98752.81;4465099;32;34147;-64
2022/11/21 12:10:16;;;;;;;;;;;;;;;11.10;52.26;98744.47;4460946;32;34426;-66
2022/11/21 12:12:58;;;;;;;;;;;;;;;11.19;51.60;98743.63;4459000;32;33139;-67
2022/11/21 12:15:51;;;;;;;;;;;;;;;11.26;51.90;98741.22;4470851;32;33000;-68
2022/11/21 12:18:18;;;;;;;;;;;;;;;11.22;51.66;98742.50;4461455;32;33175;-68
2022/11/21 12:20:49;;;;;;;;;;;;;;;11.06;52.22;98737.72;4473041;31;34008;-69
2022/11/21 12:23:16;;;;;;;;;;;;;;;11.12;52.31;98742.53;4468767;32;31750;-70
2022/11/21 12:25:58;;;;;;;;;;;;;;;10.90;52.85;98741.81;4477550;32;35509;-68
2022/11/21 12:28:27;;;;;;;;;;;;;;;10.85;52.84;98736.06;4455468;32;32988;-68
2022/11/21 12:30:56;;;;;;;;;;;;;;;9.97;55.51;98739.53;4459200;32;32808;-68
2022/11/21 12:33:23;;;;;;;;;;;;;;;9.69;56.42;98733.91;4465376;32;31703;-70
2022/11/21 12:36:17;;;;;;;;;;;;;;;9.79;55.96;98729.47;4469983;32;34144;-68
2022/11/21 12:38:45;;;;;;;;;;;;;;;10.22;54.61;98728.34;4459649;32;32910;-68
2022/11/21 12:44:21;;;;;;;;;;;;;;;10.56;54.48;98713.78;4457155;32;33318;-69
2022/11/21 12:47:09;;;;;;;;;;;;;;;10.48;53.97;98718.00;4478586;32;34246;-68
2022/11/21 12:55:35;;;;;;;;;;;;;;;10.17;54.81;98719.87;4472003;32;33478;-68
2022/11/21 12:58:04;;;;;;;;;;;;;;;10.18;53.63;98726.09;4460796;32;35183;-67
2022/11/21 13:00:31;;;;;;;;;;;;;;;10.00;54.13;98718.69;4459344;32;34200;-69
2022/11/21 13:03:17;;;;;;;;;;;;;;;9.60;54.47;98720.50;4473411;32;35204;-67
2022/11/21 13:05:45;;;;;;;;;;;;;;;9.89;54.12;98728.69;4467895;32;34451;-68
2022/11/21 13:08:24;;;;;;;;;;;;;;;9.16;55.91;98727.87;4460115;32;35268;-67
2022/11/21 13:11:57;;;;;;;;;;;;;;;8.46;58.45;98743.44;4473911;32;34313;-70
2022/11/21 13:13:42;;;;;;;;;;;;;;;8.79;57.88;98736.28;4463959;32;32466;-67
2022/11/21 13:16:10;;;;;;;;;;;;;;;7.99;59.70;98733.94;4475548;32;33384;-68
2022/11/21 13:18:41;;;;;;;;;;;;;;;8.95;58.24;98739.38;4473520;32;34539;-68
2022/11/21 13:21:27;;;;;;;;;;;;;;;9.76;55.71;98728.91;4464026;32;32648;-68
2022/11/21 13:23:54;;;;;;;;;;;;;;;10.02;54.79;98726.59;4467011;32;33959;-68
2022/11/21 13:26:25;;;;;;;;;;;;;;;10.21;53.42;98728.50;4455485;32;32099;-68
2022/11/21 13:29:08;;;;;;;;;;;;;;;10.89;52.13;98731.25;4469234;32;33362;-70
2022/11/21 13:31:36;;;;;;;;;;;;;;;10.94;51.86;98739.69;4470681;32;35203;-67
2022/11/21 13:34:04;;;;;;;;;;;;;;;11.15;51.40;98735.03;4454524;32;34167;-68
2022/11/21 13:36:31;;;;;;;;;;;;;;;10.40;52.88;98741.06;4467150;32;34153;-68
2022/11/21 13:38:59;;;;;;;;;;;;;;;9.75;55.31;98737.88;4475110;32;32966;-68
2022/11/21 13:44:31;;;;;;;;;;;;;;;10.84;52.38;98744.22;4474134;32;34205;-69
2022/11/21 13:47:11;;;;;;;;;;;;;;;10.47;53.15;98751.09;4466196;32;33408;-68
2022/11/21 13:49:47;;;;;;;;;;;;;;;10.07;54.51;98747.56;4471566;31;33390;-69
2022/11/21 13:52:18;;;;;;;;;;;;;;;10.63;52.92;98747.88;4462943;32;32748;-69